Time;durP1;ratioP1;P1;durP2;ratioP2;P2;SDS_P1;SDS_P2;PMS_P1;PMS_P2;Temp;Humidity;BMP_temperature;BMP_pressure;BME280_temperature;BME280_humidity;BME280_pressure;Samples;Min_cycle;Max_cycle;Signal;HPM_P1;HPM_P2
2023/03/12 00:00:54;;;;;;;0.52;0.52;;;;;;;8.66;52.57;91540.91;4979426;28;20503;-79
2023/03/12 00:03:19;;;;;;;0.65;0.65;;;;;;;8.54;52.62;91542.19;4979562;28;20118;-79
2023/03/12 00:05:45;;;;;;;0.52;0.52;;;;;;;8.44;52.84;91546.88;4978386;28;20101;-79
2023/03/12 00:08:11;;;;;;;0.60;0.60;;;;;;;8.35;53.54;91546.75;4978155;28;20531;-79
2023/03/12 00:10:39;;;;;;;0.43;0.43;;;;;;;8.24;53.80;91550.66;4978806;28;20031;-79
2023/03/12 00:13:05;;;;;;;0.60;0.60;;;;;;;8.13;54.32;91561.31;4978760;28;20114;-79
2023/03/12 00:15:30;;;;;;;0.60;0.60;;;;;;;8.03;54.26;91560.75;4978766;28;20030;-78
2023/03/12 00:17:57;;;;;;;0.63;0.63;;;;;;;7.95;54.75;91566.63;4978203;28;20069;-79
2023/03/12 00:20:23;;;;;;;0.50;0.50;;;;;;;7.91;54.67;91563.88;4978367;28;20058;-79
2023/03/12 00:22:50;;;;;;;0.70;0.70;;;;;;;7.87;54.70;91568.09;4978247;28;20447;-78
2023/03/12 00:25:16;;;;;;;0.50;0.50;;;;;;;7.83;55.14;91567.13;4978296;28;20023;-79
2023/03/12 00:27:42;;;;;;;0.47;0.47;;;;;;;7.80;55.07;91570.34;4977971;28;20051;-79
2023/03/12 00:30:09;;;;;;;0.57;0.57;;;;;;;7.78;54.78;91569.84;4977370;28;20042;-79
2023/03/12 00:32:36;;;;;;;0.40;0.40;;;;;;;7.75;54.54;91573.06;4978913;28;20432;-79
2023/03/12 00:35:04;;;;;;;0.50;0.50;;;;;;;7.72;54.98;91571.78;4977772;28;20417;-79
2023/03/12 00:37:31;;;;;;;0.47;0.47;;;;;;;7.87;54.60;91576.69;4978567;28;20045;-79
2023/03/12 00:39:57;;;;;;;0.60;0.60;;;;;;;7.85;54.50;91578.03;4978890;28;20041;-79
2023/03/12 00:42:23;;;;;;;0.50;0.50;;;;;;;7.81;55.41;91587.50;4978327;28;20042;-79
2023/03/12 00:44:48;;;;;;;0.52;0.52;;;;;;;7.77;55.44;91576.91;4978710;28;20027;-79
2023/03/12 00:47:14;;;;;;;0.50;0.50;;;;;;;7.77;55.87;91581.31;4978411;28;20042;-78
2023/03/12 00:49:39;;;;;;;0.57;0.57;;;;;;;7.72;56.13;91588.19;4977583;28;20027;-79
2023/03/12 00:52:05;;;;;;;0.50;0.50;;;;;;;7.62;56.94;91583.16;4960824;28;20049;-79
2023/03/12 00:54:31;;;;;;;0.50;0.50;;;;;;;7.53;56.91;91590.13;4977990;28;20117;-79
2023/03/12 00:56:57;;;;;;;0.60;0.60;;;;;;;7.50;56.58;91593.31;4976711;28;20093;-79
2023/03/12 00:59:22;;;;;;;0.60;0.60;;;;;;;7.53;56.58;91595.31;4977550;28;20509;-79
2023/03/12 01:01:48;;;;;;;0.50;0.50;;;;;;;7.49;57.10;91594.34;4957190;29;20560;-79
2023/03/12 01:04:13;;;;;;;0.50;0.50;;;;;;;7.43;57.66;91600.69;4972978;28;20114;-79
2023/03/12 01:06:39;;;;;;;0.55;0.55;;;;;;;7.36;57.39;91605.50;4973726;28;20469;-79
2023/03/12 01:09:07;;;;;;;0.50;0.50;;;;;;;7.32;57.59;91607.16;4975072;28;20374;-79
2023/03/12 01:11:33;;;;;;;0.52;0.52;;;;;;;7.33;58.07;91606.88;4959608;29;20042;-79
2023/03/12 01:14:00;;;;;;;0.55;0.55;;;;;;;7.34;57.72;91618.03;4960187;29;20023;-78
2023/03/12 01:16:28;;;;;;;0.60;0.60;;;;;;;7.32;58.25;91620.97;4959016;29;20059;-79
2023/03/12 01:18:58;;;;;;;1.98;1.20;;;;;;;7.28;58.51;91625.94;4960025;28;20023;-79
2023/03/12 01:21:25;;;;;;;2.67;1.60;;;;;;;7.24;60.20;91629.41;4958752;29;20043;-79
2023/03/12 01:23:50;;;;;;;2.30;1.50;;;;;;;7.19;62.19;91627.66;4975270;28;20031;-79
2023/03/12 01:26:16;;;;;;;3.35;1.83;;;;;;;7.15;62.25;91626.69;4974547;28;20047;-79
2023/03/12 01:28:42;;;;;;;2.95;1.60;;;;;;;7.08;64.09;91628.88;4959892;28;20054;-78
2023/03/12 01:31:11;;;;;;;3.35;1.80;;;;;;;7.02;64.52;91635.22;4960833;28;20081;-79
2023/03/12 01:33:36;;;;;;;2.72;1.70;;;;;;;7.00;65.30;91637.34;4959551;28;20532;-79
2023/03/12 01:36:03;;;;;;;3.22;1.67;;;;;;;6.98;65.37;91636.84;4958820;29;20043;-78
2023/03/12 01:38:28;;;;;;;4.60;2.00;;;;;;;6.93;66.07;91634.34;4975446;28;20059;-79
2023/03/12 01:40:55;;;;;;;2.05;1.50;;;;;;;6.87;65.94;91638.84;4960880;29;20039;-79
2023/03/12 01:43:30;;;;;;;2.90;1.70;;;;;;;6.75;66.72;91631.47;4975559;28;20391;-79
2023/03/12 01:46:23;;;;;;;2.33;1.40;;;;;;;6.75;66.69;91636.66;4960295;28;20042;-78
2023/03/12 01:48:55;;;;;;;3.50;1.60;;;;;;;6.67;67.13;91647.72;4973275;28;20514;-79
2023/03/12 01:51:26;;;;;;;2.05;1.30;;;;;;;6.60;66.55;91642.88;4959497;29;20071;-79
2023/03/12 01:53:56;;;;;;;2.15;1.20;;;;;;;6.62;66.06;91650.38;4975142;28;20035;-79
2023/03/12 01:56:26;;;;;;;1.50;1.10;;;;;;;6.56;66.97;91654.13;4959230;29;20055;-79
2023/03/12 01:58:57;;;;;;;1.67;1.00;;;;;;;6.51;66.60;91657.56;4974114;28;20086;-79
2023/03/12 02:01:23;;;;;;;1.50;1.02;;;;;;;6.46;67.01;91668.81;4974920;28;20035;-79
2023/03/12 02:03:52;;;;;;;1.42;0.90;;;;;;;6.38;66.80;91664.22;4959152;29;20032;-79
2023/03/12 02:06:27;;;;;;;1.95;1.30;;;;;;;6.36;67.12;91662.97;4958597;29;20031;-79
2023/03/12 02:08:54;;;;;;;2.28;1.45;;;;;;;6.36;68.55;91668.91;4959621;28;20046;-78
2023/03/12 02:11:19;;;;;;;2.13;1.30;;;;;;;6.25;69.86;91672.69;4959037;28;20035;-78
2023/03/12 02:13:45;;;;;;;1.60;1.00;;;;;;;6.17;69.13;91673.31;4958728;29;20047;-79
2023/03/12 02:16:11;;;;;;;1.35;0.90;;;;;;;6.13;69.28;91675.72;4957132;29;20033;-79
2023/03/12 02:18:36;;;;;;;0.95;0.85;;;;;;;6.07;69.58;91681.25;4959468;28;20047;-79
2023/03/12 02:21:08;;;;;;;1.10;1.00;;;;;;;5.98;69.96;91684.44;4959307;28;20456;-79
2023/03/12 02:23:34;;;;;;;1.70;1.10;;;;;;;5.95;69.62;91682.41;4958825;28;20035;-79
2023/03/12 02:26:03;;;;;;;2.88;1.90;;;;;;;6.06;74.84;91683.06;4973700;28;20031;-79
2023/03/12 02:28:29;;;;;;;2.40;1.70;;;;;;;6.12;75.16;91688.97;4959522;28;20366;-79
2023/03/12 02:31:01;;;;;;;2.13;1.40;;;;;;;6.02;73.38;91679.47;4959004;29;20090;-78
2023/03/12 02:33:27;;;;;;;2.38;1.48;;;;;;;6.01;73.44;91688.31;4974943;28;20078;-79
2023/03/12 02:35:53;;;;;;;2.05;1.25;;;;;;;6.04;74.33;91688.53;4957533;29;20035;-79
2023/03/12 02:38:42;;;;;;;3.80;2.00;;;;;;;6.15;78.65;91693.63;4959194;28;20579;-78
2023/03/12 02:41:24;;;;;;;3.90;2.30;;;;;;;6.35;80.49;91692.59;4977088;28;20043;-78
2023/03/12 02:44:27;;;;;;;4.32;2.55;;;;;;;6.47;82.71;91696.34;4962130;28;20083;-78
2023/03/12 02:46:55;;;;;;;5.15;3.00;;;;;;;6.56;82.94;91698.31;4977362;28;20066;-79
2023/03/12 02:49:23;;;;;;;5.57;2.85;;;;;;;6.56;84.18;91703.53;4961922;29;20038;-79
2023/03/12 02:51:49;;;;;;;5.22;3.08;;;;;;;6.55;86.67;91691.56;4962885;28;20106;-79
2023/03/12 02:54:17;;;;;;;4.85;2.75;;;;;;;6.55;85.84;91694.97;4977505;28;20055;-78
2023/03/12 02:56:43;;;;;;;6.25;2.92;;;;;;;6.46;85.75;91700.00;4961779;29;20042;-79
2023/03/12 02:59:09;;;;;;;6.18;2.90;;;;;;;6.45;88.35;91711.44;4977511;28;20031;-79
2023/03/12 03:01:39;;;;;;;6.10;3.20;;;;;;;6.41;89.61;91720.84;4962004;29;20035;-78
2023/03/12 03:04:07;;;;;;;5.22;3.00;;;;;;;6.32;86.62;91722.53;4978509;28;20027;-79
2023/03/12 03:06:34;;;;;;;5.20;3.10;;;;;;;6.34;89.41;91730.81;4963438;29;20035;-79
2023/03/12 03:08:59;;;;;;;6.47;3.50;;;;;;;6.38;91.44;91731.81;4977989;28;20241;-79
2023/03/12 03:11:25;;;;;;;6.03;3.17;;;;;;;6.34;92.15;91733.41;4961426;29;20465;-79
2023/03/12 03:13:54;;;;;;;4.88;3.20;;;;;;;6.38;92.56;91737.00;4978865;28;20027;-79
2023/03/12 03:16:23;;;;;;;5.78;3.10;;;;;;;6.39;92.78;91735.94;4976522;28;20058;-78
2023/03/12 03:18:49;;;;;;;7.50;3.42;;;;;;;6.32;93.06;91740.72;4961351;29;20039;-78
2023/03/12 03:21:16;;;;;;;6.70;3.25;;;;;;;6.31;95.23;91744.38;4976924;28;20066;-79
2023/03/12 03:23:44;;;;;;;7.30;3.67;;;;;;;6.45;95.66;91752.28;4978545;28;20023;-78
2023/03/12 03:26:10;;;;;;;6.60;3.40;;;;;;;6.38;97.20;91759.63;4978179;28;20062;-79
2023/03/12 03:28:35;;;;;;;6.72;3.47;;;;;;;6.37;97.88;91758.88;4977545;28;20067;-79
2023/03/12 03:31:01;;;;;;;5.30;3.20;;;;;;;6.33;98.54;91763.06;4961027;29;20039;-78
2023/03/12 03:33:33;;;;;;;5.00;3.25;;;;;;;6.30;97.80;91771.41;4960942;29;20083;-79
2023/03/12 03:36:00;;;;;;;6.75;3.00;;;;;;;6.27;98.53;91763.41;4977039;28;20035;-79
2023/03/12 03:38:29;;;;;;;6.40;3.63;;;;;;;6.18;98.10;91774.41;4977030;28;20019;-79
2023/03/12 03:40:55;;;;;;;6.00;2.95;;;;;;;6.11;97.73;91778.38;4977216;28;20493;-79
2023/03/12 03:43:21;;;;;;;4.82;2.80;;;;;;;6.03;98.27;91780.53;4976924;28;20047;-78
2023/03/12 03:45:47;;;;;;;4.78;2.88;;;;;;;6.04;97.44;91779.47;4976735;28;20027;-79
2023/03/12 03:48:13;;;;;;;5.90;3.00;;;;;;;6.10;98.36;91784.63;4978270;28;20039;-79
2023/03/12 03:50:40;;;;;;;5.57;2.75;;;;;;;6.12;99.25;91785.13;4989441;28;20035;-78
2023/03/12 03:53:08;;;;;;;6.30;3.05;;;;;;;6.15;100.00;91794.97;4960072;28;20050;-79
2023/03/12 03:55:38;;;;;;;6.80;2.78;;;;;;;6.16;100.00;91796.50;4961636;29;20051;-79
2023/03/12 03:58:06;;;;;;;5.82;2.92;;;;;;;6.14;100.00;91796.78;4960824;29;20035;-79
2023/03/12 04:00:32;;;;;;;5.47;2.70;;;;;;;6.09;100.00;91798.66;4961549;29;20047;-78
2023/03/12 04:02:58;;;;;;;7.38;3.25;;;;;;;6.09;100.00;91809.06;4960327;29;20046;-78
2023/03/12 04:05:24;;;;;;;5.15;2.88;;;;;;;6.08;100.00;91805.69;4968833;28;20026;-79
2023/03/12 04:07:52;;;;;;;5.20;2.95;;;;;;;6.17;100.00;91818.84;4980892;28;20050;-79
2023/03/12 04:10:23;;;;;;;5.13;3.17;;;;;;;6.10;100.00;91821.75;4981274;28;20066;-79
2023/03/12 04:12:50;;;;;;;6.25;3.03;;;;;;;6.10;100.00;91818.41;4980314;28;20038;-79
2023/03/12 04:15:16;;;;;;;5.70;2.83;;;;;;;6.15;100.00;91818.38;4980582;28;20026;-78
2023/03/12 04:17:42;;;;;;;6.03;3.10;;;;;;;6.07;100.00;91824.91;4980258;28;20043;-79
2023/03/12 04:20:10;;;;;;;7.18;3.15;;;;;;;5.97;100.00;91822.44;4979468;28;20031;-79
2023/03/12 04:22:37;;;;;;;6.32;3.00;;;;;;;5.92;100.00;91831.00;4979113;28;20090;-79
2023/03/12 04:25:03;;;;;;;7.07;2.90;;;;;;;5.94;100.00;91830.72;4978552;28;20090;-79
2023/03/12 04:27:29;;;;;;;5.70;2.90;;;;;;;5.89;100.00;91826.34;4976381;28;20134;-79
2023/03/12 04:29:55;;;;;;;6.10;2.78;;;;;;;5.92;100.00;91831.00;4978801;28;20428;-79
2023/03/12 04:32:20;;;;;;;4.82;2.53;;;;;;;5.87;100.00;91833.63;4962591;28;20453;-79
2023/03/12 04:34:46;;;;;;;8.38;2.90;;;;;;;5.89;100.00;91833.38;4978468;28;20023;-79
2023/03/12 04:37:14;;;;;;;6.45;2.97;;;;;;;5.91;100.00;91836.47;4963936;28;20038;-79
2023/03/12 04:39:42;;;;;;;4.45;2.53;;;;;;;5.82;100.00;91849.25;4963388;28;20085;-79
2023/03/12 04:42:09;;;;;;;7.68;2.60;;;;;;;5.77;100.00;91851.91;4963324;28;20046;-78
2023/03/12 04:44:36;;;;;;;7.05;2.60;;;;;;;5.72;100.00;91851.94;4979394;28;20023;-79
2023/03/12 04:47:03;;;;;;;5.07;2.50;;;;;;;5.63;100.00;91857.72;4979941;28;20528;-79
2023/03/12 04:49:28;;;;;;;4.85;2.40;;;;;;;5.55;100.00;91855.69;4964062;28;20031;-78
2023/03/12 04:51:54;;;;;;;4.72;2.47;;;;;;;5.47;100.00;91861.47;4964081;28;20038;-79
2023/03/12 04:54:21;;;;;;;6.07;2.40;;;;;;;5.38;100.00;91874.22;4979926;28;20027;-79
2023/03/12 04:56:48;;;;;;;5.88;2.60;;;;;;;5.29;100.00;91875.06;4979855;28;20053;-79
2023/03/12 04:59:14;;;;;;;5.05;2.60;;;;;;;5.20;100.00;91877.44;4980104;28;20027;-79
2023/03/12 05:01:41;;;;;;;4.97;2.63;;;;;;;5.14;100.00;91886.28;4979011;28;20059;-79
2023/03/12 05:04:14;;;;;;;4.43;2.38;;;;;;;5.08;100.00;91890.72;4964291;28;20398;-78
2023/03/12 05:06:39;;;;;;;5.85;2.72;;;;;;;5.01;100.00;91892.84;4979551;28;20051;-79
2023/03/12 05:09:05;;;;;;;6.07;2.58;;;;;;;4.93;100.00;91893.38;4980237;28;20035;-78
2023/03/12 05:11:31;;;;;;;4.55;2.20;;;;;;;4.92;100.00;91891.84;4979985;28;20405;-79
2023/03/12 05:13:56;;;;;;;4.97;2.28;;;;;;;4.87;100.00;91899.63;4964109;28;20523;-79
2023/03/12 05:16:22;;;;;;;6.35;2.40;;;;;;;4.82;100.00;91897.03;4980432;28;20039;-79
2023/03/12 05:18:48;;;;;;;4.07;2.20;;;;;;;4.79;100.00;91898.34;4980710;28;20046;-79
2023/03/12 05:21:17;;;;;;;6.28;2.60;;;;;;;4.72;100.00;91887.50;4979185;28;20039;-79
2023/03/12 05:23:43;;;;;;;5.03;2.42;;;;;;;4.77;100.00;91900.44;4979456;28;20042;-79
2023/03/12 05:26:22;;;;;;;4.15;2.25;;;;;;;4.74;100.00;91904.34;4978759;28;20050;-79
2023/03/12 05:28:50;;;;;;;4.97;2.15;;;;;;;4.73;100.00;91902.03;4978999;28;20034;-79
2023/03/12 05:31:18;;;;;;;6.63;2.30;;;;;;;4.73;100.00;91904.63;4978974;28;20117;-79
2023/03/12 05:33:44;;;;;;;4.85;2.15;;;;;;;4.75;100.00;91911.09;4979692;28;20086;-79
2023/03/12 05:36:11;;;;;;;4.03;2.00;;;;;;;4.75;100.00;91913.69;4978725;28;20421;-78
2023/03/12 05:38:37;;;;;;;4.03;2.15;;;;;;;4.83;100.00;91909.75;4979480;28;20054;-79
2023/03/12 05:41:05;;;;;;;5.63;2.00;;;;;;;4.86;100.00;91919.59;4962161;28;20094;-79
2023/03/12 05:43:33;;;;;;;4.65;2.20;;;;;;;4.83;100.00;91908.97;4978684;28;20045;-79
2023/03/12 05:46:04;;;;;;;6.05;2.00;;;;;;;4.85;100.00;91914.69;4978985;28;20030;-79
2023/03/12 05:48:31;;;;;;;5.57;2.03;;;;;;;4.85;100.00;91919.88;4978357;28;20034;-79
2023/03/12 05:50:57;;;;;;;4.18;1.88;;;;;;;4.81;100.00;91927.38;4978836;28;20039;-79
2023/03/12 05:53:23;;;;;;;5.65;1.90;;;;;;;4.85;100.00;91927.66;4977978;28;20109;-78
2023/03/12 05:55:49;;;;;;;4.85;2.13;;;;;;;4.86;100.00;91931.78;4961389;28;20118;-79
2023/03/12 05:58:14;;;;;;;4.10;2.03;;;;;;;4.86;100.00;91918.81;4978595;28;20038;-79
2023/03/12 06:00:43;;;;;;;3.55;1.98;;;;;;;4.99;100.00;91918.25;4977295;28;20031;-78
2023/03/12 06:03:10;;;;;;;5.32;1.90;;;;;;;5.62;100.00;91935.88;4977319;28;20097;-79
2023/03/12 06:05:36;;;;;;;3.70;1.77;;;;;;;6.27;100.00;91940.91;4978193;28;20031;-78
2023/03/12 06:08:03;;;;;;;8.70;1.90;;;;;;;6.70;99.87;91942.91;4979261;28;20063;-79
2023/03/12 06:10:29;;;;;;;7.50;2.33;;;;;;;7.29;96.04;91937.31;4978056;28;20485;-79
2023/03/12 06:12:55;;;;;;;4.25;1.98;;;;;;;7.87;90.16;91932.91;4978273;28;20047;-79
2023/03/12 06:15:20;;;;;;;3.88;1.80;;;;;;;8.37;86.09;91933.22;4977469;28;20034;-79
2023/03/12 06:17:46;;;;;;;4.70;2.08;;;;;;;8.95;83.17;91937.22;4971429;28;20059;-79
2023/03/12 06:20:12;;;;;;;5.53;2.20;;;;;;;9.50;79.58;91944.28;4971608;28;20389;-79
2023/03/12 06:22:38;;;;;;;5.43;2.20;;;;;;;10.20;76.85;91945.69;4983545;28;20067;-79
2023/03/12 06:25:04;;;;;;;4.03;1.75;;;;;;;10.77;72.33;91942.53;4983197;28;20034;-80
2023/03/12 06:27:30;;;;;;;4.88;2.20;;;;;;;11.35;70.25;91940.78;4964317;29;20082;-78
2023/03/12 06:29:56;;;;;;;5.38;2.10;;;;;;;11.70;65.05;91951.38;4964407;28;20070;-80
2023/03/12 06:32:21;;;;;;;4.93;1.90;;;;;;;12.17;64.05;91941.88;4964185;29;20039;-79
2023/03/12 06:34:47;;;;;;;3.67;1.85;;;;;;;12.49;61.50;91945.88;4964668;29;20039;-80
2023/03/12 06:37:13;;;;;;;3.80;1.80;;;;;;;13.01;58.93;91957.38;4962437;29;20126;-78
2023/03/12 06:39:38;;;;;;;4.38;2.08;;;;;;;13.54;58.58;91956.91;4980793;28;20031;-80
2023/03/12 06:42:04;;;;;;;4.22;1.83;;;;;;;14.11;55.00;91949.63;4985362;28;20071;-79
2023/03/12 06:44:30;;;;;;;5.32;1.75;;;;;;;14.14;54.84;91957.66;4981423;28;20419;-78
2023/03/12 06:46:56;;;;;;;3.75;1.80;;;;;;;14.81;52.32;91954.38;4980243;28;20039;-78
2023/03/12 06:49:22;;;;;;;4.80;1.75;;;;;;;14.99;50.57;91948.63;4981065;28;20034;-77
2023/03/12 06:51:48;;;;;;;6.60;1.77;;;;;;;15.71;47.61;91950.91;4981508;28;20077;-78
2023/03/12 06:54:14;;;;;;;4.50;1.75;;;;;;;16.26;46.21;91946.13;4984156;28;20526;-80
2023/03/12 06:56:39;;;;;;;5.40;2.00;;;;;;;16.20;47.40;91960.66;4986484;28;20034;-78
2023/03/12 06:59:05;;;;;;;4.15;1.85;;;;;;;16.49;46.37;91966.75;4983944;28;20075;-80
2023/03/12 07:01:31;;;;;;;3.78;1.60;;;;;;;17.26;43.35;91961.25;4976286;28;20473;-80
2023/03/12 07:03:57;;;;;;;3.85;1.77;;;;;;;16.82;44.54;91975.25;4970926;28;20117;-79
2023/03/12 07:06:23;;;;;;;4.53;1.90;;;;;;;17.12;44.16;91980.19;4984242;28;20531;-80
2023/03/12 07:08:49;;;;;;;3.92;1.60;;;;;;;16.96;43.54;91985.44;4982172;28;20023;-81
2023/03/12 07:11:16;;;;;;;4.85;1.90;;;;;;;16.14;46.18;91988.38;4984098;28;20039;-80
2023/03/12 07:13:42;;;;;;;4.10;1.70;;;;;;;16.64;45.78;91995.88;4985901;28;20035;-80
2023/03/12 07:16:08;;;;;;;4.65;1.60;;;;;;;17.42;43.60;92006.25;4983035;28;20035;-77
2023/03/12 07:18:34;;;;;;;5.18;1.65;;;;;;;16.93;43.63;92006.47;4980940;28;20027;-80
2023/03/12 07:21:00;;;;;;;3.65;1.42;;;;;;;17.87;42.43;91999.81;4979480;28;20039;-80
2023/03/12 07:23:26;;;;;;;3.60;1.75;;;;;;;17.23;43.29;92012.97;4963437;28;20106;-78
2023/03/12 07:25:52;;;;;;;5.53;1.77;;;;;;;17.69;42.88;92015.22;4967443;28;20066;-78
2023/03/12 07:28:19;;;;;;;4.45;1.83;;;;;;;17.61;41.90;92022.25;4981363;28;20489;-78
2023/03/12 07:30:49;;;;;;;6.28;1.90;;;;;;;17.69;42.53;92026.59;4977801;28;20035;-78
2023/03/12 07:33:18;;;;;;;4.50;1.90;;;;;;;17.10;43.07;92032.63;4982635;28;20042;-80
2023/03/12 07:35:45;;;;;;;4.30;1.67;;;;;;;16.23;45.93;92023.34;4980967;28;20022;-80
2023/03/12 07:38:10;;;;;;;3.55;1.55;;;;;;;15.74;45.58;92029.41;4981808;28;20039;-81
2023/03/12 07:40:40;;;;;;;5.63;2.03;;;;;;;15.24;49.20;92048.81;4970608;28;20035;-80
2023/03/12 07:43:10;;;;;;;3.45;1.60;;;;;;;15.02;49.90;92051.81;4965648;28;20059;-78
2023/03/12 07:45:38;;;;;;;3.20;1.63;;;;;;;14.23;50.64;92043.69;4962799;28;20038;-79
2023/03/12 07:48:05;;;;;;;5.28;1.90;;;;;;;13.65;51.82;92051.25;4978647;28;20094;-80
2023/03/12 07:50:31;;;;;;;5.45;1.90;;;;;;;12.56;54.23;92047.81;4979326;28;20051;-82
2023/03/12 07:53:09;;;;;;;4.50;1.70;;;;;;;12.01;58.27;92048.34;4977643;28;20496;-79
2023/03/12 07:55:36;;;;;;;3.25;1.70;;;;;;;11.76;58.05;92065.53;4980877;28;20035;-79
2023/03/12 07:58:05;;;;;;;3.40;1.80;;;;;;;11.20;59.54;92071.09;4976864;28;20027;-80
2023/03/12 08:00:38;;;;;;;2.35;1.52;;;;;;;11.21;58.96;92080.53;4981132;28;20043;-81
2023/03/12 08:03:05;;;;;;;3.83;1.70;;;;;;;11.22;59.71;92086.53;4981742;28;20126;-79
2023/03/12 08:05:31;;;;;;;7.32;1.85;;;;;;;11.15;59.03;92094.06;4980492;28;20019;-80
2023/03/12 08:07:57;;;;;;;3.85;1.58;;;;;;;11.57;59.56;92079.66;4980395;28;20125;-79
2023/03/12 08:10:57;;;;;;;2.47;1.63;;;;;;;11.50;58.57;92089.00;4980905;28;20093;-80
2023/03/12 08:13:28;;;;;;;4.47;1.90;;;;;;;11.17;59.75;92102.38;4981925;28;20027;-82
2023/03/12 08:16:04;;;;;;;4.70;2.00;;;;;;;11.27;59.96;92086.41;4978684;28;20039;-82
2023/03/12 08:18:30;;;;;;;5.07;2.13;;;;;;;10.74;61.17;92093.13;4980804;28;20042;-76
2023/03/12 08:21:02;;;;;;;3.22;1.70;;;;;;;9.82;63.51;92095.00;4966109;28;20071;-80
2023/03/12 08:23:38;;;;;;;;;;;;;;;9.72;62.24;92103.78;4978830;28;20050;-79
2023/03/12 08:26:04;;;;;;;3.75;1.80;;;;;;;9.66;63.64;92099.72;4978913;28;19918;-80
2023/03/12 08:28:32;;;;;;;2.40;1.45;;;;;;;9.83;63.51;92098.38;4977799;28;20035;-80
2023/03/12 08:31:03;;;;;;;1.52;1.20;;;;;;;9.62;63.31;92108.44;4977153;28;20069;-79
2023/03/12 08:33:31;;;;;;;2.58;1.50;;;;;;;9.62;62.69;92118.88;4978120;28;20062;-79
2023/03/12 08:36:09;;;;;;;1.48;1.20;;;;;;;9.79;63.22;92104.19;4982722;28;20038;-78
2023/03/12 08:38:37;;;;;;;2.55;1.55;;;;;;;9.85;63.04;92101.47;4981783;28;20030;-79
2023/03/12 08:41:22;;;;;;;3.45;1.77;;;;;;;10.03;63.74;92103.22;4982377;28;20039;-79
2023/03/12 08:43:52;;;;;;;3.75;1.55;;;;;;;10.31;62.92;92109.25;4980402;28;20354;-79
2023/03/12 08:46:18;;;;;;;3.13;1.60;;;;;;;10.45;62.19;92106.59;4964655;28;20058;-79
2023/03/12 08:48:44;;;;;;;3.90;1.80;;;;;;;10.05;61.79;92113.38;4981747;28;20143;-77
2023/03/12 08:51:11;;;;;;;3.55;1.70;;;;;;;9.67;64.64;92101.25;4963693;28;20027;-78
2023/03/12 08:53:40;;;;;;;3.63;2.10;;;;;;;9.95;62.08;92111.72;4964394;28;20051;-78
2023/03/12 08:56:08;;;;;;;2.75;1.73;;;;;;;9.79;62.47;92114.66;4962226;28;20046;-79
2023/03/12 08:58:33;;;;;;;3.67;1.88;;;;;;;9.69;61.89;92125.28;4961250;28;20081;-79
2023/03/12 09:00:59;;;;;;;4.90;1.60;;;;;;;10.23;62.45;92117.72;4958426;28;20485;-79
2023/03/12 09:03:25;;;;;;;3.10;1.38;;;;;;;10.45;60.12;92117.06;4955784;29;20062;-78
2023/03/12 09:06:12;;;;;;;2.55;1.40;;;;;;;10.37;60.04;92115.13;4959717;29;20536;-79
2023/03/12 09:08:40;;;;;;;3.15;1.65;;;;;;;10.31;60.77;92117.09;4960387;29;20043;-79
2023/03/12 09:11:10;;;;;;;3.85;1.88;;;;;;;10.43;61.04;92121.81;4962273;28;20400;-79
2023/03/12 09:13:36;;;;;;;3.35;1.63;;;;;;;10.77;59.81;92128.44;4961733;28;20062;-78
2023/03/12 09:16:04;;;;;;;2.63;1.35;;;;;;;10.98;58.28;92116.41;4957221;29;20035;-78
2023/03/12 09:18:34;;;;;;;2.67;1.55;;;;;;;11.18;58.80;92124.88;4956551;29;20101;-78
2023/03/12 09:21:04;;;;;;;3.17;1.52;;;;;;;11.40;58.77;92122.25;4958164;29;20055;-78
2023/03/12 09:23:29;;;;;;;1.63;1.15;;;;;;;11.04;58.46;92110.00;4956938;29;20047;-79
2023/03/12 09:25:56;;;;;;;3.10;1.80;;;;;;;11.05;59.96;92126.47;4957495;29;20457;-77
2023/03/12 09:28:21;;;;;;;2.88;1.83;;;;;;;10.92;60.29;92122.06;4958154;28;20063;-78
2023/03/12 09:30:52;;;;;;;2.42;1.25;;;;;;;11.03;58.23;92134.66;4959082;28;20449;-79
2023/03/12 09:33:18;;;;;;;6.35;1.90;;;;;;;11.00;59.00;92127.38;4958429;29;20448;-79
2023/03/12 09:35:55;;;;;;;3.50;1.58;;;;;;;10.89;59.36;92131.28;4957450;29;20035;-78
2023/03/12 09:38:22;;;;;;;3.25;1.67;;;;;;;10.79;59.51;92139.38;4957666;29;20046;-79
2023/03/12 09:40:49;;;;;;;3.55;1.60;;;;;;;11.24;59.64;92134.19;4958554;28;20576;-77
2023/03/12 09:43:32;;;;;;;4.32;1.70;;;;;;;10.95;58.98;92135.34;4941628;29;20513;-78
2023/03/12 09:45:59;;;;;;;5.10;1.70;;;;;;;11.02;59.51;92142.78;4958546;28;20034;-78
2023/03/12 09:48:33;;;;;;;1.88;1.30;;;;;;;10.94;58.55;92136.44;4958069;28;20031;-79
2023/03/12 09:51:15;;;;;;;3.90;1.80;;;;;;;11.29;58.46;92141.91;4957999;28;20043;-79
2023/03/12 09:53:47;;;;;;;3.35;1.58;;;;;;;11.79;57.53;92139.09;4958197;28;20047;-78
2023/03/12 09:56:16;;;;;;;4.03;1.70;;;;;;;12.04;56.96;92131.69;4958385;28;20043;-79
2023/03/12 09:58:49;;;;;;;2.65;1.30;;;;;;;12.13;55.05;92131.72;4958887;28;20020;-78
2023/03/12 10:01:37;;;;;;;3.35;1.80;;;;;;;11.94;54.59;92139.84;4957517;29;20058;-79
2023/03/12 10:04:36;;;;;;;2.38;1.30;;;;;;;12.25;55.24;92140.56;4959393;28;20043;-79
2023/03/12 10:07:17;;;;;;;3.67;1.70;;;;;;;12.41;54.03;92137.53;4957597;29;20039;-79
2023/03/12 10:10:19;;;;;;;2.57;1.57;;;;;;;12.53;53.75;92145.56;4958428;29;20135;-78
2023/03/12 10:13:06;;;;;;;2.45;1.40;;;;;;;12.21;55.72;92158.00;4953671;28;20413;-79
2023/03/12 10:15:49;;;;;;;2.30;1.35;;;;;;;12.08;53.81;92149.13;4956689;29;20413;-78
2023/03/12 10:18:47;;;;;;;3.25;1.65;;;;;;;11.95;56.22;92151.84;4956466;29;20039;-78
2023/03/12 10:21:21;;;;;;;3.00;1.60;;;;;;;12.09;54.95;92147.28;4958249;28;20090;-79
2023/03/12 10:23:55;;;;;;;2.88;1.50;;;;;;;11.78;54.92;92152.53;4958136;29;20082;-78
2023/03/12 10:26:24;;;;;;;3.20;1.80;;;;;;;12.03;55.44;92145.88;4957414;29;20039;-78
2023/03/12 10:29:10;;;;;;;2.40;1.48;;;;;;;12.01;54.49;92150.66;4958741;28;20516;-79
2023/03/12 10:31:59;;;;;;;1.92;1.20;;;;;;;12.28;53.74;92134.69;4957965;28;20035;-78
2023/03/12 10:34:36;;;;;;;2.28;1.40;;;;;;;11.78;54.26;92145.44;4957742;29;20042;-78
2023/03/12 10:37:12;;;;;;;2.55;1.50;;;;;;;12.10;53.41;92135.72;4941350;29;20404;-78
2023/03/12 10:39:39;;;;;;;2.70;1.70;;;;;;;12.26;53.53;92136.84;4958288;28;20039;-78
2023/03/12 10:42:14;;;;;;;2.80;1.27;;;;;;;12.42;54.18;92152.19;4957058;29;20113;-78
2023/03/12 10:44:40;;;;;;;2.10;1.30;;;;;;;12.54;52.84;92148.97;4958061;29;20042;-78
2023/03/12 10:47:06;;;;;;;4.05;1.75;;;;;;;12.50;52.64;92146.97;4940754;29;20027;-78
2023/03/12 10:49:36;;;;;;;3.85;2.00;;;;;;;12.04;52.84;92150.81;4956770;29;20105;-78
2023/03/12 10:52:20;;;;;;;3.03;1.52;;;;;;;12.37;53.00;92147.84;4955943;29;20043;-78
2023/03/12 10:54:50;;;;;;;3.17;1.40;;;;;;;12.50;51.47;92160.09;4957594;28;20367;-78
2023/03/12 10:57:16;;;;;;;2.47;1.40;;;;;;;12.49;52.34;92158.53;4955412;29;20058;-77
2023/03/12 10:59:46;;;;;;;2.65;1.30;;;;;;;12.98;52.70;92161.09;4958739;28;20043;-79
2023/03/12 11:02:42;;;;;;;2.20;1.35;;;;;;;12.42;51.73;92157.44;4956776;28;20035;-78
2023/03/12 11:05:47;;;;;;;3.22;1.30;;;;;;;12.68;52.88;92158.28;4957296;29;20155;-77
2023/03/12 11:08:23;;;;;;;4.47;1.50;;;;;;;12.83;51.64;92164.16;4962002;28;20047;-78
2023/03/12 11:10:49;;;;;;;3.15;1.40;;;;;;;12.84;51.54;92161.22;4974124;28;20038;-77
2023/03/12 11:13:26;;;;;;;2.83;1.50;;;;;;;12.69;52.45;92170.31;4976743;28;20038;-77
2023/03/12 11:15:53;;;;;;;1.95;1.40;;;;;;;12.78;51.74;92162.44;4975677;28;20031;-77
2023/03/12 11:18:23;;;;;;;2.42;1.13;;;;;;;12.73;51.28;92167.84;4976776;28;20027;-79
2023/03/12 11:21:17;;;;;;;2.28;1.35;;;;;;;12.38;51.93;92169.63;4977762;28;20035;-77
2023/03/12 11:24:12;;;;;;;3.20;1.60;;;;;;;12.80;50.43;92159.53;4976730;28;20047;-78
2023/03/12 11:26:50;;;;;;;3.08;1.63;;;;;;;12.59;51.20;92175.09;4977167;28;20055;-77
2023/03/12 11:29:27;;;;;;;3.22;1.30;;;;;;;12.68;51.50;92179.28;4974375;28;20555;-76
2023/03/12 11:32:10;;;;;;;2.50;1.55;;;;;;;12.57;50.74;92167.50;4973959;28;20298;-76
2023/03/12 11:34:38;;;;;;;4.72;1.60;;;;;;;12.50;51.77;92164.56;4977411;28;20077;-78
2023/03/12 11:37:38;;;;;;;2.42;1.30;;;;;;;12.89;51.57;92168.19;4977739;28;20505;-78
2023/03/12 11:40:43;;;;;;;2.85;1.40;;;;;;;13.00;51.16;92166.81;4963543;28;20074;-78
2023/03/12 11:43:17;;;;;;;2.15;1.45;;;;;;;12.95;50.66;92160.91;4979993;28;20424;-78
2023/03/12 11:45:48;;;;;;;3.38;1.50;;;;;;;12.99;50.35;92164.47;4977036;28;20035;-76
2023/03/12 11:48:57;;;;;;;2.73;1.50;;;;;;;12.79;50.00;92176.34;4978945;28;20043;-79